sensor_id;sensor_type;location;lat;lon;timestamp;P1;durP1;ratioP1;P2;durP2;ratioP2
54935;SDS011;40838;50.676;7.838;2022-07-10T00:00:43;7.82;;;2.10;;
54935;SDS011;40838;50.676;7.838;2022-07-10T00:03:12;5.13;;;1.73;;
54935;SDS011;40838;50.676;7.838;2022-07-10T00:05:39;4.90;;;1.55;;
54935;SDS011;40838;50.676;7.838;2022-07-10T00:08:06;3.85;;;1.92;;
54935;SDS011;40838;50.676;7.838;2022-07-10T00:10:32;6.95;;;2.30;;
54935;SDS011;40838;50.676;7.838;2022-07-10T00:16:05;5.97;;;2.10;;
54935;SDS011;40838;50.676;7.838;2022-07-10T00:18:33;8.10;;;1.88;;
54935;SDS011;40838;50.676;7.838;2022-07-10T00:21:00;3.85;;;1.80;;
54935;SDS011;40838;50.676;7.838;2022-07-10T00:23:27;7.60;;;2.20;;
54935;SDS011;40838;50.676;7.838;2022-07-10T00:25:55;11.52;;;2.00;;
54935;SDS011;40838;50.676;7.838;2022-07-10T00:28:25;6.90;;;2.10;;
54935;SDS011;40838;50.676;7.838;2022-07-10T00:30:52;5.13;;;2.10;;
54935;SDS011;40838;50.676;7.838;2022-07-10T00:33:21;11.25;;;2.17;;
54935;SDS011;40838;50.676;7.838;2022-07-10T00:35:48;2.72;;;1.70;;
54935;SDS011;40838;50.676;7.838;2022-07-10T00:38:15;5.50;;;2.10;;
54935;SDS011;40838;50.676;7.838;2022-07-10T00:40:42;8.55;;;2.35;;
54935;SDS011;40838;50.676;7.838;2022-07-10T00:43:09;6.00;;;2.65;;
54935;SDS011;40838;50.676;7.838;2022-07-10T00:45:42;5.88;;;2.03;;
54935;SDS011;40838;50.676;7.838;2022-07-10T00:48:11;8.55;;;2.40;;
54935;SDS011;40838;50.676;7.838;2022-07-10T00:50:39;5.25;;;2.20;;
54935;SDS011;40838;50.676;7.838;2022-07-10T00:53:07;4.07;;;1.80;;
54935;SDS011;40838;50.676;7.838;2022-07-10T00:55:34;4.80;;;2.15;;
54935;SDS011;40838;50.676;7.838;2022-07-10T00:58:09;4.60;;;1.83;;
54935;SDS011;40838;50.676;7.838;2022-07-10T01:00:38;6.78;;;2.33;;
54935;SDS011;40838;50.676;7.838;2022-07-10T01:03:08;12.02;;;2.55;;
54935;SDS011;40838;50.676;7.838;2022-07-10T01:05:35;6.45;;;2.40;;
54935;SDS011;40838;50.676;7.838;2022-07-10T01:08:07;8.20;;;2.33;;
54935;SDS011;40838;50.676;7.838;2022-07-10T01:10:33;13.40;;;2.92;;
54935;SDS011;40838;50.676;7.838;2022-07-10T01:13:00;4.30;;;2.10;;
54935;SDS011;40838;50.676;7.838;2022-07-10T01:15:28;11.75;;;2.72;;
54935;SDS011;40838;50.676;7.838;2022-07-10T01:17:56;10.60;;;2.80;;
54935;SDS011;40838;50.676;7.838;2022-07-10T01:23:01;10.63;;;3.10;;
54935;SDS011;40838;50.676;7.838;2022-07-10T01:25:28;5.90;;;2.75;;
54935;SDS011;40838;50.676;7.838;2022-07-10T01:27:55;6.40;;;2.53;;
54935;SDS011;40838;50.676;7.838;2022-07-10T01:30:21;4.25;;;2.13;;
54935;SDS011;40838;50.676;7.838;2022-07-10T01:32:50;9.35;;;3.10;;
54935;SDS011;40838;50.676;7.838;2022-07-10T01:35:17;7.68;;;2.40;;
54935;SDS011;40838;50.676;7.838;2022-07-10T01:37:44;7.55;;;2.00;;
54935;SDS011;40838;50.676;7.838;2022-07-10T01:40:12;5.03;;;2.05;;
54935;SDS011;40838;50.676;7.838;2022-07-10T01:42:39;4.85;;;2.42;;
54935;SDS011;40838;50.676;7.838;2022-07-10T01:45:07;6.43;;;2.22;;
54935;SDS011;40838;50.676;7.838;2022-07-10T01:47:36;6.55;;;1.83;;
54935;SDS011;40838;50.676;7.838;2022-07-10T01:50:03;4.80;;;2.42;;
54935;SDS011;40838;50.676;7.838;2022-07-10T01:52:32;7.97;;;2.17;;
54935;SDS011;40838;50.676;7.838;2022-07-10T01:54:59;8.25;;;2.17;;
54935;SDS011;40838;50.676;7.838;2022-07-10T01:57:27;4.32;;;2.20;;
54935;SDS011;40838;50.676;7.838;2022-07-10T01:59:56;10.93;;;3.10;;
54935;SDS011;40838;50.676;7.838;2022-07-10T02:02:25;5.82;;;2.40;;
54935;SDS011;40838;50.676;7.838;2022-07-10T02:07:55;10.20;;;2.90;;
54935;SDS011;40838;50.676;7.838;2022-07-10T02:10:22;5.90;;;2.53;;
54935;SDS011;40838;50.676;7.838;2022-07-10T02:12:51;6.07;;;2.80;;
54935;SDS011;40838;50.676;7.838;2022-07-10T02:15:24;5.47;;;2.80;;
54935;SDS011;40838;50.676;7.838;2022-07-10T02:17:51;8.48;;;2.72;;
54935;SDS011;40838;50.676;7.838;2022-07-10T02:20:20;10.73;;;2.78;;
54935;SDS011;40838;50.676;7.838;2022-07-10T02:22:47;8.27;;;3.00;;
54935;SDS011;40838;50.676;7.838;2022-07-10T02:25:14;5.60;;;3.03;;
54935;SDS011;40838;50.676;7.838;2022-07-10T02:27:49;8.60;;;2.70;;
54935;SDS011;40838;50.676;7.838;2022-07-10T02:30:17;8.73;;;3.10;;
54935;SDS011;40838;50.676;7.838;2022-07-10T02:32:44;9.25;;;3.00;;
54935;SDS011;40838;50.676;7.838;2022-07-10T02:35:11;10.05;;;3.17;;
54935;SDS011;40838;50.676;7.838;2022-07-10T02:37:40;4.95;;;3.47;;
54935;SDS011;40838;50.676;7.838;2022-07-10T02:40:07;6.63;;;3.78;;
54935;SDS011;40838;50.676;7.838;2022-07-10T02:42:34;7.30;;;2.78;;
54935;SDS011;40838;50.676;7.838;2022-07-10T02:45:01;8.65;;;3.15;;
54935;SDS011;40838;50.676;7.838;2022-07-10T02:47:37;7.38;;;3.08;;
54935;SDS011;40838;50.676;7.838;2022-07-10T02:50:04;5.40;;;3.08;;
54935;SDS011;40838;50.676;7.838;2022-07-10T02:52:32;9.88;;;3.22;;
54935;SDS011;40838;50.676;7.838;2022-07-10T02:54:58;5.40;;;3.08;;
54935;SDS011;40838;50.676;7.838;2022-07-10T02:57:27;9.73;;;3.97;;
54935;SDS011;40838;50.676;7.838;2022-07-10T02:59:54;8.82;;;3.30;;
54935;SDS011;40838;50.676;7.838;2022-07-10T03:02:21;6.97;;;3.28;;
54935;SDS011;40838;50.676;7.838;2022-07-10T03:04:56;6.82;;;3.10;;
54935;SDS011;40838;50.676;7.838;2022-07-10T03:07:24;9.57;;;3.85;;
54935;SDS011;40838;50.676;7.838;2022-07-10T03:09:50;9.02;;;3.17;;
54935;SDS011;40838;50.676;7.838;2022-07-10T03:12:19;6.75;;;3.47;;
54935;SDS011;40838;50.676;7.838;2022-07-10T03:14:48;4.43;;;2.90;;
54935;SDS011;40838;50.676;7.838;2022-07-10T03:17:15;6.10;;;3.63;;
54935;SDS011;40838;50.676;7.838;2022-07-10T03:19:42;7.35;;;3.22;;
54935;SDS011;40838;50.676;7.838;2022-07-10T03:22:12;7.72;;;3.60;;
54935;SDS011;40838;50.676;7.838;2022-07-10T03:24:39;16.40;;;3.70;;
54935;SDS011;40838;50.676;7.838;2022-07-10T03:27:06;3.55;;;3.05;;
54935;SDS011;40838;50.676;7.838;2022-07-10T03:29:35;11.95;;;3.47;;
54935;SDS011;40838;50.676;7.838;2022-07-10T03:32:04;8.32;;;3.45;;
54935;SDS011;40838;50.676;7.838;2022-07-10T03:34:32;9.13;;;3.13;;
54935;SDS011;40838;50.676;7.838;2022-07-10T03:36:59;6.18;;;3.13;;
54935;SDS011;40838;50.676;7.838;2022-07-10T03:39:27;10.52;;;2.85;;
54935;SDS011;40838;50.676;7.838;2022-07-10T03:41:54;8.88;;;2.90;;
54935;SDS011;40838;50.676;7.838;2022-07-10T03:44:21;9.88;;;2.88;;
54935;SDS011;40838;50.676;7.838;2022-07-10T03:46:48;9.15;;;2.97;;
54935;SDS011;40838;50.676;7.838;2022-07-10T03:49:15;6.18;;;2.78;;
54935;SDS011;40838;50.676;7.838;2022-07-10T03:51:42;13.40;;;4.43;;
54935;SDS011;40838;50.676;7.838;2022-07-10T03:54:09;5.05;;;2.40;;
54935;SDS011;40838;50.676;7.838;2022-07-10T03:59:30;5.07;;;2.97;;
54935;SDS011;40838;50.676;7.838;2022-07-10T07:03:17;5.57;;;1.63;;
54935;SDS011;40838;50.676;7.838;2022-07-10T07:05:44;9.93;;;1.73;;
54935;SDS011;40838;50.676;7.838;2022-07-10T07:08:11;6.40;;;1.85;;
54935;SDS011;40838;50.676;7.838;2022-07-10T07:10:41;7.35;;;1.88;;
54935;SDS011;40838;50.676;7.838;2022-07-10T07:13:08;10.65;;;1.55;;
54935;SDS011;40838;50.676;7.838;2022-07-10T07:15:35;7.45;;;1.33;;
54935;SDS011;40838;50.676;7.838;2022-07-10T07:18:07;7.05;;;1.75;;
54935;SDS011;40838;50.676;7.838;2022-07-10T07:20:38;6.00;;;2.10;;
54935;SDS011;40838;50.676;7.838;2022-07-10T07:23:22;3.90;;;1.10;;
54935;SDS011;40838;50.676;7.838;2022-07-10T07:25:49;9.05;;;1.73;;
54935;SDS011;40838;50.676;7.838;2022-07-10T07:28:17;4.30;;;1.10;;
54935;SDS011;40838;50.676;7.838;2022-07-10T07:30:45;7.70;;;1.70;;
54935;SDS011;40838;50.676;7.838;2022-07-10T07:33:12;3.80;;;1.30;;
54935;SDS011;40838;50.676;7.838;2022-07-10T07:35:42;9.35;;;2.00;;
54935;SDS011;40838;50.676;7.838;2022-07-10T07:38:09;5.75;;;1.40;;
54935;SDS011;40838;50.676;7.838;2022-07-10T07:40:36;7.43;;;1.73;;
54935;SDS011;40838;50.676;7.838;2022-07-10T07:43:04;5.68;;;1.42;;
54935;SDS011;40838;50.676;7.838;2022-07-10T07:45:32;7.68;;;1.88;;
54935;SDS011;40838;50.676;7.838;2022-07-10T07:47:59;6.57;;;1.67;;
54935;SDS011;40838;50.676;7.838;2022-07-10T07:50:29;5.00;;;1.10;;
54935;SDS011;40838;50.676;7.838;2022-07-10T07:52:59;5.82;;;1.35;;
54935;SDS011;40838;50.676;7.838;2022-07-10T07:55:32;3.47;;;1.17;;
54935;SDS011;40838;50.676;7.838;2022-07-10T07:58:00;6.57;;;1.50;;
54935;SDS011;40838;50.676;7.838;2022-07-10T08:00:28;6.22;;;1.60;;
54935;SDS011;40838;50.676;7.838;2022-07-10T08:02:57;8.57;;;1.98;;
54935;SDS011;40838;50.676;7.838;2022-07-10T08:05:25;11.77;;;1.70;;
54935;SDS011;40838;50.676;7.838;2022-07-10T08:07:56;6.13;;;1.10;;
54935;SDS011;40838;50.676;7.838;2022-07-10T08:10:25;2.30;;;0.90;;
54935;SDS011;40838;50.676;7.838;2022-07-10T08:12:53;6.32;;;1.27;;
54935;SDS011;40838;50.676;7.838;2022-07-10T08:15:20;4.25;;;1.10;;
54935;SDS011;40838;50.676;7.838;2022-07-10T08:17:55;5.00;;;1.20;;
54935;SDS011;40838;50.676;7.838;2022-07-10T08:20:24;3.75;;;1.20;;
54935;SDS011;40838;50.676;7.838;2022-07-10T08:22:53;6.28;;;1.35;;
54935;SDS011;40838;50.676;7.838;2022-07-10T08:25:21;7.82;;;1.42;;
54935;SDS011;40838;50.676;7.838;2022-07-10T08:27:51;4.10;;;1.15;;
54935;SDS011;40838;50.676;7.838;2022-07-10T08:30:18;2.47;;;1.02;;
54935;SDS011;40838;50.676;7.838;2022-07-10T08:32:45;4.85;;;0.90;;
54935;SDS011;40838;50.676;7.838;2022-07-10T08:35:12;6.00;;;1.35;;
54935;SDS011;40838;50.676;7.838;2022-07-10T08:37:42;4.85;;;1.35;;
54935;SDS011;40838;50.676;7.838;2022-07-10T08:40:13;8.57;;;1.48;;
54935;SDS011;40838;50.676;7.838;2022-07-10T08:42:44;4.88;;;1.00;;
54935;SDS011;40838;50.676;7.838;2022-07-10T08:45:12;7.45;;;1.42;;
54935;SDS011;40838;50.676;7.838;2022-07-10T08:47:40;6.35;;;1.13;;
54935;SDS011;40838;50.676;7.838;2022-07-10T08:50:15;2.90;;;0.90;;
54935;SDS011;40838;50.676;7.838;2022-07-10T08:52:48;5.97;;;1.10;;
54935;SDS011;40838;50.676;7.838;2022-07-10T08:55:23;4.10;;;1.17;;
54935;SDS011;40838;50.676;7.838;2022-07-10T08:57:52;6.65;;;1.35;;
54935;SDS011;40838;50.676;7.838;2022-07-10T09:00:21;3.90;;;0.90;;
54935;SDS011;40838;50.676;7.838;2022-07-10T09:02:48;4.13;;;1.08;;
54935;SDS011;40838;50.676;7.838;2022-07-10T09:05:17;3.78;;;1.25;;
54935;SDS011;40838;50.676;7.838;2022-07-10T09:07:44;5.40;;;0.80;;
54935;SDS011;40838;50.676;7.838;2022-07-10T09:10:11;4.75;;;0.80;;
54935;SDS011;40838;50.676;7.838;2022-07-10T09:12:50;3.35;;;0.90;;
54935;SDS011;40838;50.676;7.838;2022-07-10T09:15:18;6.50;;;1.10;;
54935;SDS011;40838;50.676;7.838;2022-07-10T09:17:53;1.50;;;0.80;;
54935;SDS011;40838;50.676;7.838;2022-07-10T09:20:29;8.60;;;1.00;;
54935;SDS011;40838;50.676;7.838;2022-07-10T09:23:00;3.00;;;0.65;;
54935;SDS011;40838;50.676;7.838;2022-07-10T09:25:40;3.13;;;0.98;;
54935;SDS011;40838;50.676;7.838;2022-07-10T09:28:07;6.20;;;1.20;;
54935;SDS011;40838;50.676;7.838;2022-07-10T09:30:35;6.47;;;0.90;;
54935;SDS011;40838;50.676;7.838;2022-07-10T09:36:05;4.50;;;0.95;;
54935;SDS011;40838;50.676;7.838;2022-07-10T09:38:54;3.95;;;1.02;;
54935;SDS011;40838;50.676;7.838;2022-07-10T09:41:26;2.88;;;0.90;;
54935;SDS011;40838;50.676;7.838;2022-07-10T09:43:56;5.28;;;1.00;;
54935;SDS011;40838;50.676;7.838;2022-07-10T09:46:25;4.43;;;0.90;;
54935;SDS011;40838;50.676;7.838;2022-07-10T09:49:04;2.50;;;0.98;;
54935;SDS011;40838;50.676;7.838;2022-07-10T09:51:33;3.78;;;1.30;;
54935;SDS011;40838;50.676;7.838;2022-07-10T09:54:03;3.38;;;0.90;;
54935;SDS011;40838;50.676;7.838;2022-07-10T09:56:33;6.10;;;1.25;;
54935;SDS011;40838;50.676;7.838;2022-07-10T09:59:06;3.20;;;1.10;;
54935;SDS011;40838;50.676;7.838;2022-07-10T10:01:41;3.70;;;0.90;;
54935;SDS011;40838;50.676;7.838;2022-07-10T10:04:12;2.38;;;0.90;;
54935;SDS011;40838;50.676;7.838;2022-07-10T10:06:40;6.07;;;1.42;;
54935;SDS011;40838;50.676;7.838;2022-07-10T10:09:11;4.57;;;0.95;;
54935;SDS011;40838;50.676;7.838;2022-07-10T10:11:41;3.72;;;1.10;;
54935;SDS011;40838;50.676;7.838;2022-07-10T10:14:16;5.50;;;1.25;;
54935;SDS011;40838;50.676;7.838;2022-07-10T10:16:46;2.92;;;0.77;;
54935;SDS011;40838;50.676;7.838;2022-07-10T10:19:20;5.18;;;0.82;;
54935;SDS011;40838;50.676;7.838;2022-07-10T10:22:07;6.80;;;1.42;;
54935;SDS011;40838;50.676;7.838;2022-07-10T10:24:38;7.90;;;1.23;;
54935;SDS011;40838;50.676;7.838;2022-07-10T10:27:07;5.50;;;1.40;;
54935;SDS011;40838;50.676;7.838;2022-07-10T10:29:37;3.53;;;0.90;;
54935;SDS011;40838;50.676;7.838;2022-07-10T10:32:06;6.22;;;1.63;;
54935;SDS011;40838;50.676;7.838;2022-07-10T10:34:41;4.38;;;1.38;;
54935;SDS011;40838;50.676;7.838;2022-07-10T10:40:03;4.60;;;1.10;;
54935;SDS011;40838;50.676;7.838;2022-07-10T10:42:32;2.60;;;1.02;;
54935;SDS011;40838;50.676;7.838;2022-07-10T10:48:01;3.45;;;1.10;;
54935;SDS011;40838;50.676;7.838;2022-07-10T10:50:38;3.85;;;0.77;;
54935;SDS011;40838;50.676;7.838;2022-07-10T10:53:14;8.70;;;1.25;;
54935;SDS011;40838;50.676;7.838;2022-07-10T10:58:54;4.20;;;1.10;;
54935;SDS011;40838;50.676;7.838;2022-07-10T11:01:25;5.72;;;1.08;;
54935;SDS011;40838;50.676;7.838;2022-07-10T11:04:15;6.28;;;0.98;;
54935;SDS011;40838;50.676;7.838;2022-07-10T11:06:45;4.40;;;1.10;;
54935;SDS011;40838;50.676;7.838;2022-07-10T11:09:22;5.07;;;1.10;;
54935;SDS011;40838;50.676;7.838;2022-07-10T11:12:00;3.83;;;1.33;;
54935;SDS011;40838;50.676;7.838;2022-07-10T11:20:20;1.65;;;0.77;;
54935;SDS011;40838;50.676;7.838;2022-07-10T11:22:49;1.70;;;0.80;;
54935;SDS011;40838;50.676;7.838;2022-07-10T11:25:27;4.97;;;0.95;;
54935;SDS011;40838;50.676;7.838;2022-07-10T11:28:07;16.25;;;2.47;;
54935;SDS011;40838;50.676;7.838;2022-07-10T11:30:44;1.42;;;0.70;;
54935;SDS011;40838;50.676;7.838;2022-07-10T11:33:12;1.85;;;1.45;;
54935;SDS011;40838;50.676;7.838;2022-07-10T11:35:45;1.98;;;0.73;;
54935;SDS011;40838;50.676;7.838;2022-07-10T11:38:25;1.90;;;1.00;;
54935;SDS011;40838;50.676;7.838;2022-07-10T11:40:53;0.73;;;0.60;;
54935;SDS011;40838;50.676;7.838;2022-07-10T11:43:22;3.20;;;0.88;;
54935;SDS011;40838;50.676;7.838;2022-07-10T11:45:50;1.50;;;1.35;;
54935;SDS011;40838;50.676;7.838;2022-07-10T11:48:19;3.15;;;2.17;;
54935;SDS011;40838;50.676;7.838;2022-07-10T11:50:48;2.63;;;0.60;;
54935;SDS011;40838;50.676;7.838;2022-07-10T11:53:21;3.25;;;0.82;;
54935;SDS011;40838;50.676;7.838;2022-07-10T11:55:50;2.17;;;0.80;;
54935;SDS011;40838;50.676;7.838;2022-07-10T12:01:40;2.97;;;0.70;;
54935;SDS011;40838;50.676;7.838;2022-07-10T12:04:08;2.70;;;0.90;;
54935;SDS011;40838;50.676;7.838;2022-07-10T12:06:38;4.82;;;0.82;;
54935;SDS011;40838;50.676;7.838;2022-07-10T12:09:06;2.58;;;0.50;;
54935;SDS011;40838;50.676;7.838;2022-07-10T12:11:36;1.80;;;0.40;;
54935;SDS011;40838;50.676;7.838;2022-07-10T12:14:09;1.13;;;0.70;;
54935;SDS011;40838;50.676;7.838;2022-07-10T12:16:39;2.60;;;0.70;;
54935;SDS011;40838;50.676;7.838;2022-07-10T12:19:10;0.70;;;0.50;;
54935;SDS011;40838;50.676;7.838;2022-07-10T12:21:42;1.40;;;0.70;;
54935;SDS011;40838;50.676;7.838;2022-07-10T12:24:10;2.85;;;0.60;;
54935;SDS011;40838;50.676;7.838;2022-07-10T12:26:42;1.75;;;0.50;;
54935;SDS011;40838;50.676;7.838;2022-07-10T12:29:11;1.85;;;0.60;;
54935;SDS011;40838;50.676;7.838;2022-07-10T12:31:46;0.57;;;0.50;;
54935;SDS011;40838;50.676;7.838;2022-07-10T12:34:15;1.10;;;0.60;;
54935;SDS011;40838;50.676;7.838;2022-07-10T12:36:47;0.50;;;0.50;;
54935;SDS011;40838;50.676;7.838;2022-07-10T12:39:17;1.60;;;0.80;;
54935;SDS011;40838;50.676;7.838;2022-07-10T12:44:34;2.80;;;0.85;;
54935;SDS011;40838;50.676;7.838;2022-07-10T12:47:04;1.58;;;1.15;;
54935;SDS011;40838;50.676;7.838;2022-07-10T12:49:50;2.38;;;0.70;;
54935;SDS011;40838;50.676;7.838;2022-07-10T12:52:19;1.95;;;0.80;;
54935;SDS011;40838;50.676;7.838;2022-07-10T12:54:47;0.77;;;0.75;;
54935;SDS011;40838;50.676;7.838;2022-07-10T12:57:15;5.03;;;1.00;;
54935;SDS011;40838;50.676;7.838;2022-07-10T12:59:42;2.88;;;0.60;;
54935;SDS011;40838;50.676;7.838;2022-07-10T13:04:55;4.45;;;0.60;;
54935;SDS011;40838;50.676;7.838;2022-07-10T13:07:29;2.08;;;0.70;;
54935;SDS011;40838;50.676;7.838;2022-07-10T13:09:58;0.60;;;0.60;;
54935;SDS011;40838;50.676;7.838;2022-07-10T13:12:38;2.58;;;0.70;;
54935;SDS011;40838;50.676;7.838;2022-07-10T13:15:08;0.95;;;0.70;;
54935;SDS011;40838;50.676;7.838;2022-07-10T13:17:42;3.55;;;0.82;;
54935;SDS011;40838;50.676;7.838;2022-07-10T13:20:11;2.30;;;1.00;;
54935;SDS011;40838;50.676;7.838;2022-07-10T13:22:39;1.15;;;0.80;;
54935;SDS011;40838;50.676;7.838;2022-07-10T13:25:06;5.80;;;0.98;;
54935;SDS011;40838;50.676;7.838;2022-07-10T13:27:34;0.55;;;0.40;;
54935;SDS011;40838;50.676;7.838;2022-07-10T13:30:03;1.42;;;0.60;;
54935;SDS011;40838;50.676;7.838;2022-07-10T13:32:35;1.42;;;0.35;;
54935;SDS011;40838;50.676;7.838;2022-07-10T13:35:04;1.47;;;0.57;;
54935;SDS011;40838;50.676;7.838;2022-07-10T13:37:31;0.75;;;0.47;;
54935;SDS011;40838;50.676;7.838;2022-07-10T13:39:58;0.80;;;0.80;;
54935;SDS011;40838;50.676;7.838;2022-07-10T13:42:25;0.57;;;0.50;;
54935;SDS011;40838;50.676;7.838;2022-07-10T13:44:58;1.25;;;0.60;;
54935;SDS011;40838;50.676;7.838;2022-07-10T13:47:30;0.95;;;0.90;;
54935;SDS011;40838;50.676;7.838;2022-07-10T13:49:57;1.20;;;1.08;;
54935;SDS011;40838;50.676;7.838;2022-07-10T13:52:50;1.73;;;1.60;;
54935;SDS011;40838;50.676;7.838;2022-07-10T13:55:22;5.40;;;2.10;;
54935;SDS011;40838;50.676;7.838;2022-07-10T13:57:49;5.05;;;3.80;;
54935;SDS011;40838;50.676;7.838;2022-07-10T14:00:15;5.75;;;4.10;;
54935;SDS011;40838;50.676;7.838;2022-07-10T14:02:44;4.45;;;3.70;;
54935;SDS011;40838;50.676;7.838;2022-07-10T14:05:17;5.38;;;4.30;;
54935;SDS011;40838;50.676;7.838;2022-07-10T14:07:43;7.25;;;4.30;;
54935;SDS011;40838;50.676;7.838;2022-07-10T14:10:16;9.05;;;5.38;;
54935;SDS011;40838;50.676;7.838;2022-07-10T14:12:43;6.15;;;5.13;;
54935;SDS011;40838;50.676;7.838;2022-07-10T14:15:10;5.72;;;5.13;;
54935;SDS011;40838;50.676;7.838;2022-07-10T14:17:37;7.20;;;4.95;;
54935;SDS011;40838;50.676;7.838;2022-07-10T14:20:06;7.70;;;4.90;;
54935;SDS011;40838;50.676;7.838;2022-07-10T14:22:37;6.50;;;4.75;;
54935;SDS011;40838;50.676;7.838;2022-07-10T14:25:04;7.32;;;5.13;;
54935;SDS011;40838;50.676;7.838;2022-07-10T14:27:39;6.93;;;5.22;;
54935;SDS011;40838;50.676;7.838;2022-07-10T14:30:06;8.88;;;5.38;;
54935;SDS011;40838;50.676;7.838;2022-07-10T14:32:34;7.95;;;5.10;;
54935;SDS011;40838;50.676;7.838;2022-07-10T14:35:03;12.63;;;5.57;;
54935;SDS011;40838;50.676;7.838;2022-07-10T14:37:33;6.80;;;5.57;;
54935;SDS011;40838;50.676;7.838;2022-07-10T14:40:00;6.38;;;5.47;;
54935;SDS011;40838;50.676;7.838;2022-07-10T14:42:27;8.00;;;5.70;;
54935;SDS011;40838;50.676;7.838;2022-07-10T14:44:56;12.10;;;6.40;;
54935;SDS011;40838;50.676;7.838;2022-07-10T14:47:23;6.13;;;5.53;;
54935;SDS011;40838;50.676;7.838;2022-07-10T14:50:02;8.73;;;5.57;;
54935;SDS011;40838;50.676;7.838;2022-07-10T14:52:44;6.60;;;5.03;;
54935;SDS011;40838;50.676;7.838;2022-07-10T14:55:11;7.15;;;5.32;;
54935;SDS011;40838;50.676;7.838;2022-07-10T14:57:38;6.60;;;5.60;;
54935;SDS011;40838;50.676;7.838;2022-07-10T15:00:05;6.18;;;5.38;;
54935;SDS011;40838;50.676;7.838;2022-07-10T15:02:33;5.47;;;4.97;;
54935;SDS011;40838;50.676;7.838;2022-07-10T15:04:59;5.03;;;4.53;;
54935;SDS011;40838;50.676;7.838;2022-07-10T15:07:31;7.68;;;5.45;;
54935;SDS011;40838;50.676;7.838;2022-07-10T15:09:59;7.00;;;4.88;;
54935;SDS011;40838;50.676;7.838;2022-07-10T15:12:26;5.22;;;4.82;;
54935;SDS011;40838;50.676;7.838;2022-07-10T15:14:52;5.80;;;4.60;;
54935;SDS011;40838;50.676;7.838;2022-07-10T15:17:21;7.32;;;6.13;;
54935;SDS011;40838;50.676;7.838;2022-07-10T15:19:50;6.75;;;5.80;;
54935;SDS011;40838;50.676;7.838;2022-07-10T15:22:17;9.55;;;6.68;;
54935;SDS011;40838;50.676;7.838;2022-07-10T15:24:45;8.38;;;6.68;;
54935;SDS011;40838;50.676;7.838;2022-07-10T15:27:16;7.18;;;6.47;;
54935;SDS011;40838;50.676;7.838;2022-07-10T15:29:43;6.25;;;5.65;;
54935;SDS011;40838;50.676;7.838;2022-07-10T15:32:09;7.13;;;5.25;;
54935;SDS011;40838;50.676;7.838;2022-07-10T15:34:38;6.13;;;5.53;;
54935;SDS011;40838;50.676;7.838;2022-07-10T15:37:05;6.80;;;6.10;;
54935;SDS011;40838;50.676;7.838;2022-07-10T15:39:32;6.50;;;5.85;;
54935;SDS011;40838;50.676;7.838;2022-07-10T15:42:07;6.25;;;5.55;;
54935;SDS011;40838;50.676;7.838;2022-07-10T15:44:36;6.97;;;6.28;;
54935;SDS011;40838;50.676;7.838;2022-07-10T15:47:05;7.13;;;5.72;;
54935;SDS011;40838;50.676;7.838;2022-07-10T15:49:32;10.35;;;6.00;;
54935;SDS011;40838;50.676;7.838;2022-07-10T15:52:01;5.95;;;5.35;;
54935;SDS011;40838;50.676;7.838;2022-07-10T15:57:51;7.43;;;5.30;;
54935;SDS011;40838;50.676;7.838;2022-07-10T16:00:21;6.57;;;5.15;;
54935;SDS011;40838;50.676;7.838;2022-07-10T16:02:48;6.53;;;4.68;;
54935;SDS011;40838;50.676;7.838;2022-07-10T16:05:14;5.63;;;5.00;;
54935;SDS011;40838;50.676;7.838;2022-07-10T16:07:42;8.15;;;5.50;;
54935;SDS011;40838;50.676;7.838;2022-07-10T16:10:09;6.60;;;6.00;;
54935;SDS011;40838;50.676;7.838;2022-07-10T16:12:44;6.30;;;5.35;;
54935;SDS011;40838;50.676;7.838;2022-07-10T16:15:13;8.77;;;6.50;;
54935;SDS011;40838;50.676;7.838;2022-07-10T16:17:54;9.18;;;6.32;;
54935;SDS011;40838;50.676;7.838;2022-07-10T16:20:21;9.68;;;6.65;;
54935;SDS011;40838;50.676;7.838;2022-07-10T16:22:48;8.90;;;6.78;;
54935;SDS011;40838;50.676;7.838;2022-07-10T16:25:15;10.73;;;7.22;;
54935;SDS011;40838;50.676;7.838;2022-07-10T16:27:59;9.07;;;7.55;;
54935;SDS011;40838;50.676;7.838;2022-07-10T16:30:28;7.72;;;6.80;;
54935;SDS011;40838;50.676;7.838;2022-07-10T16:32:57;10.05;;;7.38;;
54935;SDS011;40838;50.676;7.838;2022-07-10T16:35:24;8.85;;;7.38;;
54935;SDS011;40838;50.676;7.838;2022-07-10T16:37:50;12.90;;;6.93;;
54935;SDS011;40838;50.676;7.838;2022-07-10T16:43:21;8.63;;;7.15;;
54935;SDS011;40838;50.676;7.838;2022-07-10T16:45:50;10.10;;;7.53;;
54935;SDS011;40838;50.676;7.838;2022-07-10T16:48:18;9.75;;;7.72;;
54935;SDS011;40838;50.676;7.838;2022-07-10T16:50:45;10.90;;;8.57;;
54935;SDS011;40838;50.676;7.838;2022-07-10T16:53:12;13.02;;;9.02;;
54935;SDS011;40838;50.676;7.838;2022-07-10T16:55:39;11.57;;;9.38;;
54935;SDS011;40838;50.676;7.838;2022-07-10T16:58:07;15.65;;;11.20;;
54935;SDS011;40838;50.676;7.838;2022-07-10T17:00:34;12.88;;;9.73;;
54935;SDS011;40838;50.676;7.838;2022-07-10T17:03:05;15.05;;;10.48;;
54935;SDS011;40838;50.676;7.838;2022-07-10T17:05:33;14.80;;;10.32;;
54935;SDS011;40838;50.676;7.838;2022-07-10T17:08:00;11.50;;;9.43;;
54935;SDS011;40838;50.676;7.838;2022-07-10T17:10:27;12.15;;;8.73;;
54935;SDS011;40838;50.676;7.838;2022-07-10T17:12:55;11.43;;;8.25;;
54935;SDS011;40838;50.676;7.838;2022-07-10T17:15:22;10.25;;;9.10;;
54935;SDS011;40838;50.676;7.838;2022-07-10T17:17:49;9.93;;;8.82;;
54935;SDS011;40838;50.676;7.838;2022-07-10T17:20:17;9.70;;;8.57;;
54935;SDS011;40838;50.676;7.838;2022-07-10T17:22:47;13.63;;;9.68;;
54935;SDS011;40838;50.676;7.838;2022-07-10T17:25:23;15.18;;;10.10;;
54935;SDS011;40838;50.676;7.838;2022-07-10T17:27:50;17.30;;;11.45;;
54935;SDS011;40838;50.676;7.838;2022-07-10T17:30:17;12.98;;;10.20;;
54935;SDS011;40838;50.676;7.838;2022-07-10T17:32:45;12.13;;;10.57;;
54935;SDS011;40838;50.676;7.838;2022-07-10T17:35:13;12.20;;;10.52;;
54935;SDS011;40838;50.676;7.838;2022-07-10T17:37:39;11.13;;;9.88;;
54935;SDS011;40838;50.676;7.838;2022-07-10T17:40:08;13.23;;;11.30;;
54935;SDS011;40838;50.676;7.838;2022-07-10T17:42:37;14.43;;;10.45;;
54935;SDS011;40838;50.676;7.838;2022-07-10T17:45:08;13.55;;;11.43;;
54935;SDS011;40838;50.676;7.838;2022-07-10T17:51:23;14.55;;;10.48;;
54935;SDS011;40838;50.676;7.838;2022-07-10T17:53:50;17.55;;;11.40;;
54935;SDS011;40838;50.676;7.838;2022-07-10T17:56:20;12.80;;;11.27;;
54935;SDS011;40838;50.676;7.838;2022-07-10T17:58:47;18.98;;;11.30;;
54935;SDS011;40838;50.676;7.838;2022-07-10T18:01:14;17.02;;;11.50;;
54935;SDS011;40838;50.676;7.838;2022-07-10T18:03:41;13.35;;;11.40;;
54935;SDS011;40838;50.676;7.838;2022-07-10T18:06:09;15.40;;;10.73;;
54935;SDS011;40838;50.676;7.838;2022-07-10T18:08:35;13.75;;;9.82;;
54935;SDS011;40838;50.676;7.838;2022-07-10T18:11:13;12.98;;;9.85;;
54935;SDS011;40838;50.676;7.838;2022-07-10T18:13:43;14.30;;;9.15;;
54935;SDS011;40838;50.676;7.838;2022-07-10T18:16:09;12.48;;;9.80;;
54935;SDS011;40838;50.676;7.838;2022-07-10T18:18:37;16.45;;;11.30;;
54935;SDS011;40838;50.676;7.838;2022-07-10T18:21:13;15.05;;;10.82;;
54935;SDS011;40838;50.676;7.838;2022-07-10T18:23:40;16.92;;;11.20;;
54935;SDS011;40838;50.676;7.838;2022-07-10T18:26:09;13.98;;;10.35;;
54935;SDS011;40838;50.676;7.838;2022-07-10T18:28:36;14.85;;;10.05;;
54935;SDS011;40838;50.676;7.838;2022-07-10T18:31:07;13.95;;;10.00;;
54935;SDS011;40838;50.676;7.838;2022-07-10T18:33:34;10.68;;;9.45;;
54935;SDS011;40838;50.676;7.838;2022-07-10T18:36:45;13.07;;;9.10;;
54935;SDS011;40838;50.676;7.838;2022-07-10T18:39:12;11.60;;;9.93;;
54935;SDS011;40838;50.676;7.838;2022-07-10T18:41:39;18.13;;;10.55;;
54935;SDS011;40838;50.676;7.838;2022-07-10T18:44:06;13.43;;;10.00;;
54935;SDS011;40838;50.676;7.838;2022-07-10T18:46:35;14.75;;;10.95;;